sensor_id;sensor_type;location;lat;lon;timestamp;P1;durP1;ratioP1;P2;durP2;ratioP2
65658;SDS011;60181;53.258;6.932;2023-10-19T00:02:10;17.90;;;9.20;;
65658;SDS011;60181;53.258;6.932;2023-10-19T00:06:30;20.60;;;9.20;;
65658;SDS011;60181;53.258;6.932;2023-10-19T00:10:50;20.60;;;9.20;;
65658;SDS011;60181;53.258;6.932;2023-10-19T00:15:10;16.70;;;9.10;;
65658;SDS011;60181;53.258;6.932;2023-10-19T00:19:30;16.70;;;9.10;;
65658;SDS011;60181;53.258;6.932;2023-10-19T00:23:56;16.70;;;9.10;;
65658;SDS011;60181;53.258;6.932;2023-10-19T00:28:10;16.30;;;9.00;;
65658;SDS011;60181;53.258;6.932;2023-10-19T00:32:30;16.30;;;9.00;;
65658;SDS011;60181;53.258;6.932;2023-10-19T00:36:50;18.00;;;9.30;;
65658;SDS011;60181;53.258;6.932;2023-10-19T00:41:09;18.00;;;9.30;;
65658;SDS011;60181;53.258;6.932;2023-10-19T00:45:29;29.60;;;11.50;;
65658;SDS011;60181;53.258;6.932;2023-10-19T00:49:49;29.60;;;11.50;;
65658;SDS011;60181;53.258;6.932;2023-10-19T00:54:11;29.60;;;11.50;;
65658;SDS011;60181;53.258;6.932;2023-10-19T00:58:29;24.90;;;11.70;;
65658;SDS011;60181;53.258;6.932;2023-10-19T01:02:49;24.90;;;11.70;;
65658;SDS011;60181;53.258;6.932;2023-10-19T01:07:10;24.40;;;12.10;;
65658;SDS011;60181;53.258;6.932;2023-10-19T01:11:29;24.40;;;12.10;;
65658;SDS011;60181;53.258;6.932;2023-10-19T01:15:49;25.90;;;11.10;;
65658;SDS011;60181;53.258;6.932;2023-10-19T01:20:14;25.90;;;11.10;;
65658;SDS011;60181;53.258;6.932;2023-10-19T01:24:29;19.60;;;11.00;;
65658;SDS011;60181;53.258;6.932;2023-10-19T01:28:49;19.60;;;11.00;;
65658;SDS011;60181;53.258;6.932;2023-10-19T01:33:09;19.60;;;11.00;;
65658;SDS011;60181;53.258;6.932;2023-10-19T01:37:29;21.20;;;11.00;;
65658;SDS011;60181;53.258;6.932;2023-10-19T01:41:49;21.20;;;11.00;;
65658;SDS011;60181;53.258;6.932;2023-10-19T01:46:10;18.80;;;10.70;;
65658;SDS011;60181;53.258;6.932;2023-10-19T01:50:29;18.80;;;10.70;;
65658;SDS011;60181;53.258;6.932;2023-10-19T01:54:49;21.60;;;11.30;;
65658;SDS011;60181;53.258;6.932;2023-10-19T01:59:09;21.60;;;11.30;;
65658;SDS011;60181;53.258;6.932;2023-10-19T02:03:29;21.60;;;11.30;;
65658;SDS011;60181;53.258;6.932;2023-10-19T02:07:49;19.80;;;11.30;;
65658;SDS011;60181;53.258;6.932;2023-10-19T02:12:09;19.80;;;11.30;;
65658;SDS011;60181;53.258;6.932;2023-10-19T02:16:29;20.80;;;11.30;;
65658;SDS011;60181;53.258;6.932;2023-10-19T02:20:49;20.80;;;11.30;;
65658;SDS011;60181;53.258;6.932;2023-10-19T02:25:09;20.90;;;11.00;;
65658;SDS011;60181;53.258;6.932;2023-10-19T02:29:29;20.90;;;11.00;;
65658;SDS011;60181;53.258;6.932;2023-10-19T02:33:49;20.90;;;11.00;;
65658;SDS011;60181;53.258;6.932;2023-10-19T02:38:09;21.00;;;10.70;;
65658;SDS011;60181;53.258;6.932;2023-10-19T02:42:29;21.00;;;10.70;;
65658;SDS011;60181;53.258;6.932;2023-10-19T02:46:50;19.70;;;10.50;;
65658;SDS011;60181;53.258;6.932;2023-10-19T02:51:10;19.70;;;10.50;;
65658;SDS011;60181;53.258;6.932;2023-10-19T02:55:30;18.80;;;10.60;;
65658;SDS011;60181;53.258;6.932;2023-10-19T02:59:49;18.80;;;10.60;;
65658;SDS011;60181;53.258;6.932;2023-10-19T03:04:10;18.80;;;10.60;;
65658;SDS011;60181;53.258;6.932;2023-10-19T03:08:29;17.60;;;10.10;;
65658;SDS011;60181;53.258;6.932;2023-10-19T03:12:50;17.60;;;10.10;;
65658;SDS011;60181;53.258;6.932;2023-10-19T03:17:09;17.10;;;9.90;;
65658;SDS011;60181;53.258;6.932;2023-10-19T03:21:30;17.10;;;9.90;;
65658;SDS011;60181;53.258;6.932;2023-10-19T03:25:53;16.90;;;9.00;;
65658;SDS011;60181;53.258;6.932;2023-10-19T03:30:10;16.90;;;9.00;;
65658;SDS011;60181;53.258;6.932;2023-10-19T03:34:29;15.80;;;8.80;;
65658;SDS011;60181;53.258;6.932;2023-10-19T03:38:50;15.80;;;8.80;;
65658;SDS011;60181;53.258;6.932;2023-10-19T03:43:09;15.80;;;8.80;;
65658;SDS011;60181;53.258;6.932;2023-10-19T03:47:29;12.50;;;7.90;;
65658;SDS011;60181;53.258;6.932;2023-10-19T03:51:49;12.50;;;7.90;;
65658;SDS011;60181;53.258;6.932;2023-10-19T03:56:09;13.10;;;7.80;;
65658;SDS011;60181;53.258;6.932;2023-10-19T04:00:29;13.10;;;7.80;;
65658;SDS011;60181;53.258;6.932;2023-10-19T04:04:49;12.10;;;7.30;;
65658;SDS011;60181;53.258;6.932;2023-10-19T04:09:09;12.10;;;7.30;;
65658;SDS011;60181;53.258;6.932;2023-10-19T04:13:29;12.10;;;7.30;;
65658;SDS011;60181;53.258;6.932;2023-10-19T04:17:49;11.60;;;6.90;;
65658;SDS011;60181;53.258;6.932;2023-10-19T04:22:09;11.60;;;6.90;;
65658;SDS011;60181;53.258;6.932;2023-10-19T04:26:29;10.30;;;6.30;;
65658;SDS011;60181;53.258;6.932;2023-10-19T04:30:49;10.30;;;6.30;;
65658;SDS011;60181;53.258;6.932;2023-10-19T04:35:09;9.50;;;6.00;;
65658;SDS011;60181;53.258;6.932;2023-10-19T04:39:29;9.50;;;6.00;;
65658;SDS011;60181;53.258;6.932;2023-10-19T04:43:49;9.50;;;6.00;;
65658;SDS011;60181;53.258;6.932;2023-10-19T04:48:09;8.80;;;5.70;;
65658;SDS011;60181;53.258;6.932;2023-10-19T04:52:29;8.80;;;5.70;;
65658;SDS011;60181;53.258;6.932;2023-10-19T04:56:49;9.20;;;5.40;;
65658;SDS011;60181;53.258;6.932;2023-10-19T05:01:09;9.20;;;5.40;;
65658;SDS011;60181;53.258;6.932;2023-10-19T05:05:29;7.10;;;4.80;;
65658;SDS011;60181;53.258;6.932;2023-10-19T05:09:49;7.10;;;4.80;;
65658;SDS011;60181;53.258;6.932;2023-10-19T05:14:09;7.10;;;4.80;;
65658;SDS011;60181;53.258;6.932;2023-10-19T05:18:29;7.60;;;4.60;;
65658;SDS011;60181;53.258;6.932;2023-10-19T05:22:49;7.60;;;4.60;;
65658;SDS011;60181;53.258;6.932;2023-10-19T05:27:09;7.80;;;4.30;;
65658;SDS011;60181;53.258;6.932;2023-10-19T05:31:29;7.80;;;4.30;;
65658;SDS011;60181;53.258;6.932;2023-10-19T05:35:50;5.20;;;3.70;;
65658;SDS011;60181;53.258;6.932;2023-10-19T05:40:10;5.20;;;3.70;;
65658;SDS011;60181;53.258;6.932;2023-10-19T05:44:29;5.30;;;3.70;;
65658;SDS011;60181;53.258;6.932;2023-10-19T05:48:49;5.30;;;3.70;;
65658;SDS011;60181;53.258;6.932;2023-10-19T05:53:09;5.30;;;3.70;;
65658;SDS011;60181;53.258;6.932;2023-10-19T05:57:29;5.20;;;3.30;;
65658;SDS011;60181;53.258;6.932;2023-10-19T06:01:49;5.20;;;3.30;;
65658;SDS011;60181;53.258;6.932;2023-10-19T06:06:09;5.10;;;2.90;;
65658;SDS011;60181;53.258;6.932;2023-10-19T06:10:29;5.10;;;2.90;;
65658;SDS011;60181;53.258;6.932;2023-10-19T06:14:49;5.00;;;2.80;;
65658;SDS011;60181;53.258;6.932;2023-10-19T06:19:09;5.00;;;2.80;;
65658;SDS011;60181;53.258;6.932;2023-10-19T06:23:29;5.00;;;2.80;;
65658;SDS011;60181;53.258;6.932;2023-10-19T06:27:49;4.20;;;2.60;;
65658;SDS011;60181;53.258;6.932;2023-10-19T06:32:09;4.20;;;2.60;;
65658;SDS011;60181;53.258;6.932;2023-10-19T06:36:29;4.50;;;2.70;;
65658;SDS011;60181;53.258;6.932;2023-10-19T06:40:49;4.50;;;2.70;;
65658;SDS011;60181;53.258;6.932;2023-10-19T06:45:09;5.30;;;2.60;;
65658;SDS011;60181;53.258;6.932;2023-10-19T06:49:29;5.30;;;2.60;;
65658;SDS011;60181;53.258;6.932;2023-10-19T06:53:49;5.30;;;2.60;;
65658;SDS011;60181;53.258;6.932;2023-10-19T06:58:09;4.90;;;2.60;;
65658;SDS011;60181;53.258;6.932;2023-10-19T07:02:29;4.90;;;2.60;;
65658;SDS011;60181;53.258;6.932;2023-10-19T07:06:49;4.60;;;2.50;;
65658;SDS011;60181;53.258;6.932;2023-10-19T07:11:09;4.60;;;2.50;;
65658;SDS011;60181;53.258;6.932;2023-10-19T07:15:29;4.20;;;2.60;;
65658;SDS011;60181;53.258;6.932;2023-10-19T07:19:49;4.20;;;2.60;;
65658;SDS011;60181;53.258;6.932;2023-10-19T07:24:09;4.20;;;2.60;;
65658;SDS011;60181;53.258;6.932;2023-10-19T07:28:29;3.50;;;2.20;;
65658;SDS011;60181;53.258;6.932;2023-10-19T07:32:49;3.50;;;2.20;;
65658;SDS011;60181;53.258;6.932;2023-10-19T07:37:09;4.50;;;2.50;;
65658;SDS011;60181;53.258;6.932;2023-10-19T07:41:29;4.50;;;2.50;;
65658;SDS011;60181;53.258;6.932;2023-10-19T07:45:49;4.50;;;2.20;;
65658;SDS011;60181;53.258;6.932;2023-10-19T07:50:09;4.50;;;2.20;;
65658;SDS011;60181;53.258;6.932;2023-10-19T07:54:29;4.40;;;2.40;;
65658;SDS011;60181;53.258;6.932;2023-10-19T07:58:50;4.40;;;2.40;;
65658;SDS011;60181;53.258;6.932;2023-10-19T08:03:09;4.40;;;2.40;;
65658;SDS011;60181;53.258;6.932;2023-10-19T08:07:29;3.30;;;2.10;;
65658;SDS011;60181;53.258;6.932;2023-10-19T08:11:49;3.30;;;2.10;;
65658;SDS011;60181;53.258;6.932;2023-10-19T08:16:09;6.00;;;2.10;;
65658;SDS011;60181;53.258;6.932;2023-10-19T08:20:29;6.00;;;2.10;;
65658;SDS011;60181;53.258;6.932;2023-10-19T08:24:49;15.10;;;3.10;;
65658;SDS011;60181;53.258;6.932;2023-10-19T08:29:09;15.10;;;3.10;;
65658;SDS011;60181;53.258;6.932;2023-10-19T08:33:29;15.10;;;3.10;;
65658;SDS011;60181;53.258;6.932;2023-10-19T08:37:49;16.20;;;2.70;;
65658;SDS011;60181;53.258;6.932;2023-10-19T08:42:09;16.20;;;2.70;;
65658;SDS011;60181;53.258;6.932;2023-10-19T08:46:29;10.50;;;2.50;;
65658;SDS011;60181;53.258;6.932;2023-10-19T08:50:49;10.50;;;2.50;;
65658;SDS011;60181;53.258;6.932;2023-10-19T08:55:09;8.80;;;2.40;;
65658;SDS011;60181;53.258;6.932;2023-10-19T08:59:29;8.80;;;2.40;;
65658;SDS011;60181;53.258;6.932;2023-10-19T09:03:49;8.80;;;2.40;;
65658;SDS011;60181;53.258;6.932;2023-10-19T09:08:11;7.10;;;2.30;;
65658;SDS011;60181;53.258;6.932;2023-10-19T09:12:29;7.10;;;2.30;;
65658;SDS011;60181;53.258;6.932;2023-10-19T09:16:55;9.50;;;2.70;;
65658;SDS011;60181;53.258;6.932;2023-10-19T09:21:09;9.50;;;2.70;;
65658;SDS011;60181;53.258;6.932;2023-10-19T09:25:29;6.10;;;2.40;;
65658;SDS011;60181;53.258;6.932;2023-10-19T09:29:49;6.10;;;2.40;;
65658;SDS011;60181;53.258;6.932;2023-10-19T09:34:09;6.10;;;2.40;;
65658;SDS011;60181;53.258;6.932;2023-10-19T09:38:29;7.30;;;2.50;;
65658;SDS011;60181;53.258;6.932;2023-10-19T09:42:49;7.30;;;2.50;;
65658;SDS011;60181;53.258;6.932;2023-10-19T09:47:12;5.30;;;2.40;;
65658;SDS011;60181;53.258;6.932;2023-10-19T09:51:29;5.30;;;2.40;;
65658;SDS011;60181;53.258;6.932;2023-10-19T09:55:49;5.00;;;2.30;;
65658;SDS011;60181;53.258;6.932;2023-10-19T10:00:09;5.00;;;2.30;;
65658;SDS011;60181;53.258;6.932;2023-10-19T10:04:32;5.90;;;2.60;;
65658;SDS011;60181;53.258;6.932;2023-10-19T10:08:49;5.90;;;2.60;;
65658;SDS011;60181;53.258;6.932;2023-10-19T10:17:29;5.60;;;2.40;;
65658;SDS011;60181;53.258;6.932;2023-10-19T10:26:12;4.60;;;2.40;;
65658;SDS011;60181;53.258;6.932;2023-10-19T10:30:29;4.60;;;2.40;;
65658;SDS011;60181;53.258;6.932;2023-10-19T10:34:49;4.40;;;2.20;;
65658;SDS011;60181;53.258;6.932;2023-10-19T10:39:09;4.40;;;2.20;;
65658;SDS011;60181;53.258;6.932;2023-10-19T10:43:29;4.40;;;2.20;;
65658;SDS011;60181;53.258;6.932;2023-10-19T10:47:49;6.10;;;2.50;;
65658;SDS011;60181;53.258;6.932;2023-10-19T10:52:09;6.10;;;2.50;;
65658;SDS011;60181;53.258;6.932;2023-10-19T10:56:29;5.70;;;2.50;;
65658;SDS011;60181;53.258;6.932;2023-10-19T11:00:49;5.70;;;2.50;;
65658;SDS011;60181;53.258;6.932;2023-10-19T11:05:10;6.50;;;2.40;;
65658;SDS011;60181;53.258;6.932;2023-10-19T11:09:29;6.50;;;2.40;;
65658;SDS011;60181;53.258;6.932;2023-10-19T11:13:49;6.50;;;2.40;;
65658;SDS011;60181;53.258;6.932;2023-10-19T11:18:09;5.30;;;2.70;;
65658;SDS011;60181;53.258;6.932;2023-10-19T11:22:29;5.30;;;2.70;;
65658;SDS011;60181;53.258;6.932;2023-10-19T11:26:49;7.10;;;3.00;;
65658;SDS011;60181;53.258;6.932;2023-10-19T11:31:15;7.10;;;3.00;;
65658;SDS011;60181;53.258;6.932;2023-10-19T11:35:30;8.30;;;2.80;;
65658;SDS011;60181;53.258;6.932;2023-10-19T11:39:49;8.30;;;2.80;;
65658;SDS011;60181;53.258;6.932;2023-10-19T11:44:09;8.30;;;2.80;;
65658;SDS011;60181;53.258;6.932;2023-10-19T11:48:29;5.50;;;2.80;;
65658;SDS011;60181;53.258;6.932;2023-10-19T11:52:49;5.50;;;2.80;;
65658;SDS011;60181;53.258;6.932;2023-10-19T11:57:09;6.40;;;2.80;;
65658;SDS011;60181;53.258;6.932;2023-10-19T12:01:29;6.40;;;2.80;;
65658;SDS011;60181;53.258;6.932;2023-10-19T12:05:49;5.70;;;3.00;;
65658;SDS011;60181;53.258;6.932;2023-10-19T12:10:09;5.70;;;3.00;;
65658;SDS011;60181;53.258;6.932;2023-10-19T12:14:29;6.00;;;2.90;;
65658;SDS011;60181;53.258;6.932;2023-10-19T12:18:49;6.00;;;2.90;;
65658;SDS011;60181;53.258;6.932;2023-10-19T12:23:09;6.00;;;2.90;;
65658;SDS011;60181;53.258;6.932;2023-10-19T12:27:28;5.60;;;2.70;;
65658;SDS011;60181;53.258;6.932;2023-10-19T12:31:48;5.60;;;2.70;;
65658;SDS011;60181;53.258;6.932;2023-10-19T12:36:08;5.20;;;2.70;;
65658;SDS011;60181;53.258;6.932;2023-10-19T12:40:29;5.20;;;2.70;;
65658;SDS011;60181;53.258;6.932;2023-10-19T12:44:48;6.90;;;2.90;;
65658;SDS011;60181;53.258;6.932;2023-10-19T12:49:08;6.90;;;2.90;;
65658;SDS011;60181;53.258;6.932;2023-10-19T12:53:28;6.90;;;2.90;;
65658;SDS011;60181;53.258;6.932;2023-10-19T12:57:48;6.30;;;2.70;;
65658;SDS011;60181;53.258;6.932;2023-10-19T13:02:08;6.30;;;2.70;;
65658;SDS011;60181;53.258;6.932;2023-10-19T13:06:28;6.90;;;3.00;;
65658;SDS011;60181;53.258;6.932;2023-10-19T13:10:48;6.90;;;3.00;;
65658;SDS011;60181;53.258;6.932;2023-10-19T13:15:09;4.80;;;2.60;;
65658;SDS011;60181;53.258;6.932;2023-10-19T13:19:28;4.80;;;2.60;;
65658;SDS011;60181;53.258;6.932;2023-10-19T13:23:48;4.80;;;2.60;;
65658;SDS011;60181;53.258;6.932;2023-10-19T13:28:09;5.70;;;2.80;;
65658;SDS011;60181;53.258;6.932;2023-10-19T13:32:28;5.70;;;2.80;;
65658;SDS011;60181;53.258;6.932;2023-10-19T13:36:48;4.20;;;2.50;;
65658;SDS011;60181;53.258;6.932;2023-10-19T13:41:08;4.20;;;2.50;;
65658;SDS011;60181;53.258;6.932;2023-10-19T13:45:28;5.50;;;2.70;;
65658;SDS011;60181;53.258;6.932;2023-10-19T13:49:48;5.50;;;2.70;;
65658;SDS011;60181;53.258;6.932;2023-10-19T13:54:08;5.50;;;2.70;;
65658;SDS011;60181;53.258;6.932;2023-10-19T13:58:28;5.10;;;2.50;;
65658;SDS011;60181;53.258;6.932;2023-10-19T14:02:51;5.10;;;2.50;;
65658;SDS011;60181;53.258;6.932;2023-10-19T14:07:08;5.30;;;2.50;;
65658;SDS011;60181;53.258;6.932;2023-10-19T14:11:28;5.30;;;2.50;;
65658;SDS011;60181;53.258;6.932;2023-10-19T14:15:48;4.70;;;2.60;;
65658;SDS011;60181;53.258;6.932;2023-10-19T14:20:09;4.70;;;2.60;;
65658;SDS011;60181;53.258;6.932;2023-10-19T14:24:28;4.90;;;2.50;;
65658;SDS011;60181;53.258;6.932;2023-10-19T14:28:48;4.90;;;2.50;;
65658;SDS011;60181;53.258;6.932;2023-10-19T14:33:08;4.90;;;2.50;;
65658;SDS011;60181;53.258;6.932;2023-10-19T14:37:28;5.10;;;2.60;;
65658;SDS011;60181;53.258;6.932;2023-10-19T14:41:48;5.10;;;2.60;;
65658;SDS011;60181;53.258;6.932;2023-10-19T14:46:08;4.60;;;2.40;;
65658;SDS011;60181;53.258;6.932;2023-10-19T14:50:28;4.60;;;2.40;;
65658;SDS011;60181;53.258;6.932;2023-10-19T14:54:48;4.50;;;2.40;;
65658;SDS011;60181;53.258;6.932;2023-10-19T14:59:08;4.50;;;2.40;;
65658;SDS011;60181;53.258;6.932;2023-10-19T15:03:28;4.50;;;2.40;;
65658;SDS011;60181;53.258;6.932;2023-10-19T15:07:49;4.80;;;2.40;;
65658;SDS011;60181;53.258;6.932;2023-10-19T15:12:08;4.80;;;2.40;;
65658;SDS011;60181;53.258;6.932;2023-10-19T15:16:28;5.00;;;2.60;;
65658;SDS011;60181;53.258;6.932;2023-10-19T15:20:48;5.00;;;2.60;;
65658;SDS011;60181;53.258;6.932;2023-10-19T15:25:08;4.40;;;2.50;;
65658;SDS011;60181;53.258;6.932;2023-10-19T15:29:28;4.40;;;2.50;;
65658;SDS011;60181;53.258;6.932;2023-10-19T15:33:48;4.40;;;2.50;;
65658;SDS011;60181;53.258;6.932;2023-10-19T15:38:08;5.10;;;2.50;;
65658;SDS011;60181;53.258;6.932;2023-10-19T15:42:28;5.10;;;2.50;;
65658;SDS011;60181;53.258;6.932;2023-10-19T15:46:48;7.10;;;3.30;;
65658;SDS011;60181;53.258;6.932;2023-10-19T15:51:08;7.10;;;3.30;;
65658;SDS011;60181;53.258;6.932;2023-10-19T15:55:28;8.00;;;3.80;;
65658;SDS011;60181;53.258;6.932;2023-10-19T15:59:48;8.00;;;3.80;;
65658;SDS011;60181;53.258;6.932;2023-10-19T16:04:08;8.00;;;3.80;;
65658;SDS011;60181;53.258;6.932;2023-10-19T16:08:28;11.50;;;4.40;;
65658;SDS011;60181;53.258;6.932;2023-10-19T16:12:48;11.50;;;4.40;;
65658;SDS011;60181;53.258;6.932;2023-10-19T16:17:08;16.90;;;6.40;;
65658;SDS011;60181;53.258;6.932;2023-10-19T16:21:28;16.90;;;6.40;;
65658;SDS011;60181;53.258;6.932;2023-10-19T16:25:48;21.40;;;8.10;;
65658;SDS011;60181;53.258;6.932;2023-10-19T16:30:08;21.40;;;8.10;;
65658;SDS011;60181;53.258;6.932;2023-10-19T16:34:28;26.80;;;12.40;;
65658;SDS011;60181;53.258;6.932;2023-10-19T16:38:48;26.80;;;12.40;;
65658;SDS011;60181;53.258;6.932;2023-10-19T16:43:08;26.80;;;12.40;;
65658;SDS011;60181;53.258;6.932;2023-10-19T16:47:28;28.00;;;13.60;;
65658;SDS011;60181;53.258;6.932;2023-10-19T16:51:48;28.00;;;13.60;;
65658;SDS011;60181;53.258;6.932;2023-10-19T16:56:08;31.80;;;15.30;;
65658;SDS011;60181;53.258;6.932;2023-10-19T17:00:28;31.80;;;15.30;;
65658;SDS011;60181;53.258;6.932;2023-10-19T17:04:48;32.00;;;16.70;;
65658;SDS011;60181;53.258;6.932;2023-10-19T17:09:09;32.00;;;16.70;;
65658;SDS011;60181;53.258;6.932;2023-10-19T17:13:29;32.00;;;16.70;;
65658;SDS011;60181;53.258;6.932;2023-10-19T17:17:48;35.00;;;18.10;;
65658;SDS011;60181;53.258;6.932;2023-10-19T17:22:08;35.00;;;18.10;;
65658;SDS011;60181;53.258;6.932;2023-10-19T17:26:28;40.10;;;20.70;;
65658;SDS011;60181;53.258;6.932;2023-10-19T17:30:49;40.10;;;20.70;;
65658;SDS011;60181;53.258;6.932;2023-10-19T17:35:08;47.20;;;22.60;;
65658;SDS011;60181;53.258;6.932;2023-10-19T17:39:28;47.20;;;22.60;;
65658;SDS011;60181;53.258;6.932;2023-10-19T17:43:48;47.20;;;22.60;;
65658;SDS011;60181;53.258;6.932;2023-10-19T17:48:08;44.80;;;25.00;;
65658;SDS011;60181;53.258;6.932;2023-10-19T17:52:28;44.80;;;25.00;;
65658;SDS011;60181;53.258;6.932;2023-10-19T17:56:48;45.60;;;25.70;;
65658;SDS011;60181;53.258;6.932;2023-10-19T18:01:08;45.60;;;25.70;;
65658;SDS011;60181;53.258;6.932;2023-10-19T18:05:28;49.30;;;26.50;;
65658;SDS011;60181;53.258;6.932;2023-10-19T18:09:48;49.30;;;26.50;;
65658;SDS011;60181;53.258;6.932;2023-10-19T18:14:08;49.30;;;26.50;;
65658;SDS011;60181;53.258;6.932;2023-10-19T18:18:28;48.30;;;27.60;;
65658;SDS011;60181;53.258;6.932;2023-10-19T18:22:48;48.30;;;27.60;;
65658;SDS011;60181;53.258;6.932;2023-10-19T18:27:08;51.40;;;28.40;;
65658;SDS011;60181;53.258;6.932;2023-10-19T18:31:28;51.40;;;28.40;;
65658;SDS011;60181;53.258;6.932;2023-10-19T18:35:48;51.50;;;28.80;;
65658;SDS011;60181;53.258;6.932;2023-10-19T18:40:08;51.50;;;28.80;;
65658;SDS011;60181;53.258;6.932;2023-10-19T18:44:28;50.80;;;29.60;;
65658;SDS011;60181;53.258;6.932;2023-10-19T18:48:48;50.80;;;29.60;;
65658;SDS011;60181;53.258;6.932;2023-10-19T18:53:08;50.80;;;29.60;;
65658;SDS011;60181;53.258;6.932;2023-10-19T18:57:28;53.20;;;29.60;;
65658;SDS011;60181;53.258;6.932;2023-10-19T19:01:48;53.20;;;29.60;;
65658;SDS011;60181;53.258;6.932;2023-10-19T19:06:08;52.40;;;29.80;;
65658;SDS011;60181;53.258;6.932;2023-10-19T19:10:28;52.40;;;29.80;;
65658;SDS011;60181;53.258;6.932;2023-10-19T19:14:48;51.60;;;29.20;;
65658;SDS011;60181;53.258;6.932;2023-10-19T19:19:08;51.60;;;29.20;;
65658;SDS011;60181;53.258;6.932;2023-10-19T19:23:28;51.60;;;29.20;;
65658;SDS011;60181;53.258;6.932;2023-10-19T19:27:48;50.70;;;29.10;;
65658;SDS011;60181;53.258;6.932;2023-10-19T19:32:08;50.70;;;29.10;;
65658;SDS011;60181;53.258;6.932;2023-10-19T19:36:28;50.70;;;28.70;;
65658;SDS011;60181;53.258;6.932;2023-10-19T19:40:49;50.70;;;28.70;;
65658;SDS011;60181;53.258;6.932;2023-10-19T19:45:09;51.00;;;28.60;;
65658;SDS011;60181;53.258;6.932;2023-10-19T19:49:28;51.00;;;28.60;;
65658;SDS011;60181;53.258;6.932;2023-10-19T19:53:48;51.00;;;28.60;;
65658;SDS011;60181;53.258;6.932;2023-10-19T19:58:08;50.70;;;28.00;;
65658;SDS011;60181;53.258;6.932;2023-10-19T20:02:28;50.70;;;28.00;;
65658;SDS011;60181;53.258;6.932;2023-10-19T20:06:48;43.60;;;26.80;;
65658;SDS011;60181;53.258;6.932;2023-10-19T20:11:08;43.60;;;26.80;;
65658;SDS011;60181;53.258;6.932;2023-10-19T20:15:28;47.40;;;26.40;;
65658;SDS011;60181;53.258;6.932;2023-10-19T20:19:48;47.40;;;26.40;;
65658;SDS011;60181;53.258;6.932;2023-10-19T20:24:08;47.40;;;26.40;;
65658;SDS011;60181;53.258;6.932;2023-10-19T20:28:28;41.80;;;25.40;;
65658;SDS011;60181;53.258;6.932;2023-10-19T20:32:48;41.80;;;25.40;;
65658;SDS011;60181;53.258;6.932;2023-10-19T20:37:08;41.00;;;24.20;;
65658;SDS011;60181;53.258;6.932;2023-10-19T20:41:28;41.00;;;24.20;;
65658;SDS011;60181;53.258;6.932;2023-10-19T20:45:48;33.10;;;17.70;;
65658;SDS011;60181;53.258;6.932;2023-10-19T20:50:08;33.10;;;17.70;;
65658;SDS011;60181;53.258;6.932;2023-10-19T20:54:28;27.50;;;13.70;;
65658;SDS011;60181;53.258;6.932;2023-10-19T20:58:48;27.50;;;13.70;;
65658;SDS011;60181;53.258;6.932;2023-10-19T21:03:08;27.50;;;13.70;;
65658;SDS011;60181;53.258;6.932;2023-10-19T21:07:28;20.30;;;11.10;;
65658;SDS011;60181;53.258;6.932;2023-10-19T21:11:48;20.30;;;11.10;;
65658;SDS011;60181;53.258;6.932;2023-10-19T21:16:08;23.10;;;10.40;;
65658;SDS011;60181;53.258;6.932;2023-10-19T21:20:28;23.10;;;10.40;;
65658;SDS011;60181;53.258;6.932;2023-10-19T21:24:48;17.40;;;9.00;;
65658;SDS011;60181;53.258;6.932;2023-10-19T21:29:08;17.40;;;9.00;;
65658;SDS011;60181;53.258;6.932;2023-10-19T21:33:28;17.40;;;9.00;;
65658;SDS011;60181;53.258;6.932;2023-10-19T21:37:48;17.60;;;8.90;;
65658;SDS011;60181;53.258;6.932;2023-10-19T21:42:08;17.60;;;8.90;;
65658;SDS011;60181;53.258;6.932;2023-10-19T21:46:28;17.40;;;8.70;;
65658;SDS011;60181;53.258;6.932;2023-10-19T21:50:48;17.40;;;8.70;;
65658;SDS011;60181;53.258;6.932;2023-10-19T21:55:08;15.50;;;7.60;;
65658;SDS011;60181;53.258;6.932;2023-10-19T21:59:28;15.50;;;7.60;;
65658;SDS011;60181;53.258;6.932;2023-10-19T22:03:48;15.50;;;7.60;;
65658;SDS011;60181;53.258;6.932;2023-10-19T22:08:08;12.90;;;7.20;;
65658;SDS011;60181;53.258;6.932;2023-10-19T22:12:28;12.90;;;7.20;;
65658;SDS011;60181;53.258;6.932;2023-10-19T22:16:48;14.50;;;7.50;;
65658;SDS011;60181;53.258;6.932;2023-10-19T22:21:08;14.50;;;7.50;;
65658;SDS011;60181;53.258;6.932;2023-10-19T22:25:28;12.30;;;7.20;;
65658;SDS011;60181;53.258;6.932;2023-10-19T22:29:48;12.30;;;7.20;;
65658;SDS011;60181;53.258;6.932;2023-10-19T22:34:08;12.30;;;7.20;;
65658;SDS011;60181;53.258;6.932;2023-10-19T22:38:28;13.10;;;7.00;;
65658;SDS011;60181;53.258;6.932;2023-10-19T22:42:48;13.10;;;7.00;;
65658;SDS011;60181;53.258;6.932;2023-10-19T22:47:08;13.10;;;7.00;;
65658;SDS011;60181;53.258;6.932;2023-10-19T22:51:28;13.10;;;7.00;;
65658;SDS011;60181;53.258;6.932;2023-10-19T22:55:48;11.40;;;6.60;;
65658;SDS011;60181;53.258;6.932;2023-10-19T23:00:08;11.40;;;6.60;;
65658;SDS011;60181;53.258;6.932;2023-10-19T23:04:28;10.60;;;6.20;;
65658;SDS011;60181;53.258;6.932;2023-10-19T23:08:48;10.60;;;6.20;;
65658;SDS011;60181;53.258;6.932;2023-10-19T23:13:08;10.60;;;6.20;;
65658;SDS011;60181;53.258;6.932;2023-10-19T23:17:28;10.90;;;6.00;;
65658;SDS011;60181;53.258;6.932;2023-10-19T23:21:48;10.90;;;6.00;;
65658;SDS011;60181;53.258;6.932;2023-10-19T23:26:08;9.90;;;5.70;;
65658;SDS011;60181;53.258;6.932;2023-10-19T23:30:28;9.90;;;5.70;;
65658;SDS011;60181;53.258;6.932;2023-10-19T23:34:48;10.50;;;5.20;;
65658;SDS011;60181;53.258;6.932;2023-10-19T23:39:08;10.50;;;5.20;;
65658;SDS011;60181;53.258;6.932;2023-10-19T23:43:28;10.50;;;5.20;;
65658;SDS011;60181;53.258;6.932;2023-10-19T23:47:48;8.10;;;4.90;;
65658;SDS011;60181;53.258;6.932;2023-10-19T23:52:08;8.10;;;4.90;;
65658;SDS011;60181;53.258;6.932;2023-10-19T23:56:28;7.40;;;4.60;;
